createdAt,value
2022-12-08T00:02:13.491Z,55.91
2022-12-08T00:04:58.878Z,55.78
2022-12-08T00:07:43.811Z,55.17
2022-12-08T00:10:48.453Z,54.36
2022-12-08T00:13:33.609Z,56.72
2022-12-08T00:16:18.416Z,55.59
2022-12-08T00:19:03.710Z,54.59
2022-12-08T00:21:48.741Z,55.39
2022-12-08T00:24:33.785Z,55.98
2022-12-08T00:27:18.788Z,55.75
2022-12-08T00:30:03.644Z,55.55
2022-12-08T00:32:48.490Z,55.97
2022-12-08T00:35:34.853Z,56.30
2022-12-08T00:38:21.442Z,56.73
2022-12-08T00:41:06.349Z,57.17
2022-12-08T00:43:51.257Z,56.88
2022-12-08T00:46:36.212Z,55.25
2022-12-08T00:49:21.271Z,57.10
2022-12-08T00:52:06.176Z,57.31
2022-12-08T00:54:51.215Z,56.67
2022-12-08T00:57:35.977Z,56.76
2022-12-08T01:00:20.933Z,56.77
2022-12-08T01:03:05.878Z,55.33
2022-12-08T01:05:50.844Z,55.36
2022-12-08T01:08:35.704Z,56.58
2022-12-08T01:11:20.831Z,57.79
2022-12-08T01:14:05.827Z,56.00
2022-12-08T01:16:50.690Z,55.13
2022-12-08T01:19:36.099Z,56.15
2022-12-08T01:22:21.002Z,54.63
2022-12-08T01:25:05.826Z,54.60
2022-12-08T01:27:50.639Z,55.46
2022-12-08T01:30:35.651Z,56.35
2022-12-08T01:33:20.547Z,56.04
2022-12-08T01:36:05.446Z,55.83
2022-12-08T01:38:50.445Z,57.99
2022-12-08T01:41:35.409Z,56.90
2022-12-08T01:44:20.402Z,56.45
2022-12-08T01:47:05.450Z,57.16
2022-12-08T01:49:50.306Z,56.35
2022-12-08T01:52:35.251Z,57.38
2022-12-08T01:55:20.191Z,56.37
2022-12-08T01:58:05.134Z,56.15
2022-12-08T02:00:50.132Z,57.26
2022-12-08T02:03:35.144Z,57.32
2022-12-08T02:06:20.003Z,58.81
2022-12-08T02:09:05.005Z,58.85
2022-12-08T02:11:49.834Z,59.13
2022-12-08T02:14:34.810Z,58.73
2022-12-08T02:17:19.648Z,58.80
2022-12-08T02:20:04.697Z,58.34
2022-12-08T02:22:49.768Z,59.23
2022-12-08T02:25:34.559Z,59.26
2022-12-08T02:28:19.509Z,58.65
2022-12-08T02:31:04.481Z,58.96
2022-12-08T02:33:49.385Z,59.49
2022-12-08T02:36:34.323Z,59.23
2022-12-08T02:39:19.148Z,58.70
2022-12-08T02:42:03.933Z,58.67
2022-12-08T02:44:48.850Z,59.05
2022-12-08T02:47:33.713Z,59.44
2022-12-08T02:50:18.526Z,58.60
2022-12-08T02:53:03.467Z,58.53
2022-12-08T02:55:48.289Z,58.69
2022-12-08T02:58:33.228Z,58.88
2022-12-08T03:01:18.183Z,58.48
2022-12-08T03:04:03.200Z,59.66
2022-12-08T03:06:48.089Z,58.98
2022-12-08T03:09:33.123Z,59.36
2022-12-08T03:12:18.201Z,58.62
2022-12-08T03:15:03.237Z,59.40
2022-12-08T03:17:48.414Z,58.99
2022-12-08T03:20:33.194Z,58.15
2022-12-08T03:23:18.075Z,59.21
2022-12-08T03:26:03.125Z,58.85
2022-12-08T03:28:48.019Z,59.21
2022-12-08T03:31:32.909Z,58.88
2022-12-08T03:34:17.988Z,58.72
2022-12-08T03:37:02.854Z,58.71
2022-12-08T03:39:47.781Z,57.28
2022-12-08T03:42:32.798Z,58.44
2022-12-08T03:45:17.705Z,58.80
2022-12-08T03:48:02.634Z,58.63
2022-12-08T03:50:47.533Z,57.54
2022-12-08T03:53:32.546Z,58.69
2022-12-08T03:56:17.555Z,58.84
2022-12-08T03:59:02.526Z,58.19
2022-12-08T04:01:47.511Z,58.38
2022-12-08T04:04:32.397Z,57.63
2022-12-08T04:07:17.581Z,58.74
2022-12-08T04:10:02.734Z,58.44
2022-12-08T04:12:48.012Z,58.66
2022-12-08T04:15:32.787Z,58.95
2022-12-08T04:18:17.937Z,59.93
2022-12-08T04:21:02.873Z,58.75
2022-12-08T04:23:47.770Z,58.71
2022-12-08T04:26:32.680Z,58.30
2022-12-08T04:29:17.525Z,59.47
2022-12-08T04:32:02.521Z,59.77
2022-12-08T04:34:47.508Z,59.13
2022-12-08T04:37:32.433Z,59.21
2022-12-08T04:40:17.471Z,58.75
2022-12-08T04:43:02.410Z,59.48
2022-12-08T04:45:47.479Z,59.80
2022-12-08T04:48:32.450Z,59.18
2022-12-08T04:51:17.332Z,58.58
2022-12-08T04:54:02.350Z,59.26
2022-12-08T04:56:47.326Z,58.50
2022-12-08T04:59:32.158Z,57.57
2022-12-08T05:02:17.198Z,57.40
2022-12-08T05:05:02.519Z,57.84
2022-12-08T05:07:47.414Z,58.73
2022-12-08T05:10:32.356Z,58.85
2022-12-08T05:13:17.314Z,58.37
2022-12-08T05:16:02.337Z,57.49
2022-12-08T05:18:47.554Z,57.64
2022-12-08T05:21:32.574Z,57.48
2022-12-08T05:24:17.269Z,58.44
2022-12-08T05:27:02.210Z,58.00
2022-12-08T05:29:47.204Z,58.03
2022-12-08T05:32:32.076Z,58.14
2022-12-08T05:35:17.114Z,58.33
2022-12-08T05:38:01.931Z,59.21
2022-12-08T05:40:46.865Z,59.57
2022-12-08T05:43:31.693Z,60.09
2022-12-08T05:46:16.599Z,59.01
2022-12-08T05:49:01.956Z,59.44
2022-12-08T05:51:46.999Z,59.21
2022-12-08T05:54:31.944Z,59.98
2022-12-08T05:57:16.688Z,60.18
2022-12-08T06:00:02.299Z,59.74
2022-12-08T06:02:47.859Z,59.70
2022-12-08T06:05:33.081Z,58.95
2022-12-08T06:08:18.071Z,60.17
2022-12-08T06:11:03.527Z,60.14
2022-12-08T06:13:48.415Z,59.81
2022-12-08T06:16:33.306Z,59.27
2022-12-08T06:19:18.310Z,60.37
2022-12-08T06:22:03.174Z,59.49
2022-12-08T06:24:48.272Z,60.07
2022-12-08T06:27:33.138Z,59.45
2022-12-08T06:30:17.940Z,59.74
2022-12-08T06:33:02.800Z,59.37
2022-12-08T06:35:47.756Z,59.21
2022-12-08T06:38:32.772Z,59.23
2022-12-08T06:41:17.599Z,58.69
2022-12-08T06:44:02.558Z,58.40
2022-12-08T06:46:47.424Z,59.26
2022-12-08T06:49:32.460Z,58.70
2022-12-08T06:52:17.311Z,58.98
2022-12-08T06:55:02.413Z,58.43
2022-12-08T06:57:47.350Z,58.43
2022-12-08T07:00:32.373Z,58.64
2022-12-08T07:03:17.473Z,58.25
2022-12-08T07:06:04.293Z,57.27
2022-12-08T07:08:49.733Z,57.16
2022-12-08T07:11:34.689Z,57.48
2022-12-08T07:14:19.763Z,58.73
2022-12-08T07:17:04.975Z,58.40
2022-12-08T07:19:50.230Z,57.85
2022-12-08T07:22:35.108Z,57.67
2022-12-08T07:25:20.004Z,58.45
2022-12-08T07:28:04.847Z,59.12
2022-12-08T07:30:49.729Z,60.05
2022-12-08T07:33:34.665Z,58.96
2022-12-08T07:36:19.616Z,59.34
2022-12-08T07:39:04.380Z,59.46
2022-12-08T07:41:49.268Z,58.82
2022-12-08T07:44:34.116Z,58.53
2022-12-08T07:47:18.996Z,59.92
2022-12-08T07:50:04.335Z,59.11
2022-12-08T07:52:49.756Z,59.21
2022-12-08T07:55:34.598Z,59.24
2022-12-08T07:58:19.612Z,56.96
2022-12-08T08:01:04.595Z,58.18
2022-12-08T08:03:50.029Z,58.05
2022-12-08T08:06:34.971Z,57.66
2022-12-08T08:09:19.816Z,58.33
2022-12-08T08:12:29.478Z,57.89
2022-12-08T08:15:09.904Z,57.79
2022-12-08T08:17:54.757Z,57.10
2022-12-08T08:20:39.686Z,57.85
2022-12-08T08:23:24.576Z,57.95
2022-12-08T08:26:09.485Z,58.01
2022-12-08T08:28:54.316Z,57.51
2022-12-08T08:31:39.283Z,57.09
2022-12-08T08:34:24.532Z,57.24
2022-12-08T08:37:09.489Z,56.74
2022-12-08T08:39:54.927Z,57.63
2022-12-08T08:42:39.789Z,58.17
2022-12-08T08:45:24.638Z,57.65
2022-12-08T08:48:09.401Z,58.06
2022-12-08T08:50:54.441Z,56.43
2022-12-08T08:53:39.271Z,55.82
2022-12-08T08:56:24.373Z,57.33
2022-12-08T08:59:09.377Z,56.81
2022-12-08T09:01:54.459Z,55.70
2022-12-08T09:04:39.850Z,55.14
2022-12-08T09:07:24.733Z,55.94
2022-12-08T09:10:09.760Z,57.78
2022-12-08T09:12:54.750Z,58.46
2022-12-08T09:15:39.691Z,59.54
2022-12-08T09:18:24.542Z,58.72
2022-12-08T09:21:09.477Z,57.80
2022-12-08T09:23:54.556Z,58.00
2022-12-08T09:26:39.494Z,57.90
2022-12-08T09:29:24.415Z,56.69
2022-12-08T09:32:09.387Z,56.64
2022-12-08T09:34:54.254Z,55.74
2022-12-08T09:37:39.078Z,57.50
2022-12-08T09:40:23.919Z,56.92
2022-12-08T09:43:08.780Z,58.09
2022-12-08T09:45:53.742Z,57.11
2022-12-08T09:48:38.765Z,58.64
2022-12-08T09:51:23.602Z,57.35
2022-12-08T09:54:08.681Z,57.90
2022-12-08T09:56:54.177Z,56.97
2022-12-08T09:59:39.169Z,57.26
2022-12-08T10:02:24.104Z,57.44
2022-12-08T10:05:09.581Z,57.55
2022-12-08T10:07:54.615Z,59.16
2022-12-08T10:10:39.281Z,56.62
2022-12-08T10:13:24.348Z,55.68
2022-12-08T10:16:09.436Z,55.33
2022-12-08T10:18:54.788Z,55.35
2022-12-08T10:21:39.782Z,54.80
2022-12-08T10:24:24.749Z,56.81
2022-12-08T10:27:09.660Z,56.78
2022-12-08T10:29:54.488Z,56.88
2022-12-08T10:32:39.324Z,56.67
2022-12-08T10:35:24.168Z,55.87
2022-12-08T10:38:09.297Z,56.93
2022-12-08T10:40:54.231Z,56.43
2022-12-08T10:43:39.038Z,56.00
2022-12-08T10:46:23.897Z,56.44
2022-12-08T10:49:08.828Z,56.05
2022-12-08T10:51:53.848Z,55.44
2022-12-08T10:54:38.756Z,55.65
2022-12-08T10:57:23.922Z,56.78
2022-12-08T11:00:13.850Z,54.71
2022-12-08T11:02:59.424Z,54.57
2022-12-08T11:05:44.965Z,52.89
2022-12-08T11:08:29.878Z,53.59
2022-12-08T11:11:14.708Z,53.14
2022-12-08T11:13:59.518Z,54.84
2022-12-08T11:16:44.503Z,54.29
2022-12-08T11:19:29.742Z,55.59
2022-12-08T11:22:14.606Z,56.08
2022-12-08T11:24:59.627Z,52.72
2022-12-08T11:27:44.508Z,53.82
2022-12-08T11:30:29.480Z,55.63
2022-12-08T11:33:14.162Z,52.63
2022-12-08T11:35:59.014Z,53.02
2022-12-08T11:38:43.961Z,51.58
2022-12-08T11:41:28.908Z,49.04
2022-12-08T11:44:13.819Z,49.54
2022-12-08T11:46:58.696Z,51.25
2022-12-08T11:49:43.614Z,49.15
2022-12-08T11:52:28.398Z,49.32
2022-12-08T11:55:13.289Z,47.30
2022-12-08T11:57:58.149Z,48.99
2022-12-08T12:00:43.056Z,48.60
2022-12-08T12:03:28.071Z,48.15
2022-12-08T12:06:30.471Z,48.46
2022-12-08T12:09:18.312Z,46.99
2022-12-08T12:12:03.115Z,46.25
2022-12-08T12:14:48.104Z,48.69
2022-12-08T12:17:32.889Z,47.37
2022-12-08T12:20:17.805Z,48.76
2022-12-08T12:23:02.556Z,48.37
2022-12-08T12:25:47.576Z,47.44
2022-12-08T12:28:32.577Z,47.75
2022-12-08T12:31:17.645Z,49.25
2022-12-08T12:34:02.960Z,48.99
2022-12-08T12:36:47.772Z,47.65
2022-12-08T12:39:32.562Z,47.11
2022-12-08T12:42:17.434Z,46.92
2022-12-08T12:45:02.341Z,46.35
2022-12-08T12:47:52.371Z,46.25
2022-12-08T12:50:41.037Z,46.01
2022-12-08T12:53:25.892Z,47.00
2022-12-08T12:56:10.803Z,43.89
2022-12-08T12:58:55.704Z,44.46
2022-12-08T13:01:40.715Z,44.76
2022-12-08T13:04:25.592Z,45.32
2022-12-08T13:07:10.512Z,45.46
2022-12-08T13:09:55.623Z,46.81
2022-12-08T13:12:40.413Z,47.13
2022-12-08T13:15:25.396Z,46.90
2022-12-08T13:18:10.311Z,46.52
2022-12-08T13:20:55.313Z,49.15
2022-12-08T13:23:40.108Z,48.24
2022-12-08T13:26:25.102Z,47.45
2022-12-08T13:29:09.976Z,46.79
2022-12-08T13:31:54.889Z,48.36
2022-12-08T13:34:39.890Z,46.91
2022-12-08T13:37:24.871Z,44.98
2022-12-08T13:40:09.887Z,44.54
2022-12-08T13:42:54.641Z,43.65
2022-12-08T13:46:41.819Z,45.32
2022-12-08T13:57:59.826Z,42.62
2022-12-08T14:00:44.765Z,42.09
2022-12-08T14:03:30.741Z,42.56
2022-12-08T14:06:16.115Z,42.32
2022-12-08T14:09:08.432Z,46.31
2022-12-08T14:11:55.805Z,46.37
2022-12-08T14:15:01.992Z,47.24
2022-12-08T14:17:45.742Z,48.60
2022-12-08T14:20:30.599Z,48.97
2022-12-08T14:23:15.497Z,48.90
2022-12-08T14:26:00.284Z,47.29
2022-12-08T14:28:45.433Z,48.29
2022-12-08T14:31:30.503Z,47.22
2022-12-08T14:34:15.867Z,49.17
2022-12-08T14:37:00.957Z,48.56
2022-12-08T14:39:46.037Z,49.65
2022-12-08T14:42:30.833Z,48.89
2022-12-08T14:45:15.877Z,49.33
2022-12-08T14:48:00.790Z,48.64
2022-12-08T14:50:45.679Z,51.45
2022-12-08T14:53:30.462Z,49.71
2022-12-08T14:56:15.266Z,51.36
2022-12-08T14:59:00.136Z,52.33
2022-12-08T15:01:45.173Z,52.01
2022-12-08T15:04:30.190Z,52.47
2022-12-08T15:07:15.617Z,52.15
2022-12-08T15:10:00.353Z,52.61
2022-12-08T15:12:45.232Z,53.01
2022-12-08T15:15:30.282Z,54.19
2022-12-08T15:18:18.284Z,52.23
2022-12-08T15:21:03.244Z,53.32
2022-12-08T15:23:48.262Z,52.93
2022-12-08T15:26:33.121Z,53.72
2022-12-08T15:29:17.977Z,55.20
2022-12-08T15:32:02.922Z,53.68
2022-12-08T15:34:47.848Z,54.19
2022-12-08T15:37:32.731Z,54.93
2022-12-08T15:40:17.699Z,54.04
2022-12-08T15:43:02.731Z,55.00
2022-12-08T15:45:57.994Z,54.93
2022-12-08T15:48:44.205Z,53.96
2022-12-08T15:51:29.098Z,56.70
2022-12-08T15:54:14.216Z,54.54
2022-12-08T16:00:04.756Z,55.37
2022-12-08T16:03:22.548Z,56.11
2022-12-08T16:06:39.013Z,56.96
2022-12-08T16:09:11.337Z,56.65
2022-12-08T16:12:06.458Z,55.88
2022-12-08T16:17:58.205Z,56.16
2022-12-08T16:23:48.133Z,56.11
2022-12-08T16:27:42.351Z,56.46
2022-12-08T16:29:38.193Z,55.83
2022-12-08T16:32:23.141Z,56.27
2022-12-08T16:35:08.100Z,57.63
2022-12-08T16:37:52.974Z,57.27
2022-12-08T16:40:37.950Z,57.32
2022-12-08T16:43:22.931Z,56.62
2022-12-08T16:46:07.982Z,56.54
2022-12-08T16:48:53.241Z,56.80
2022-12-08T16:51:38.236Z,57.01
2022-12-08T16:54:23.172Z,58.86
2022-12-08T16:57:08.092Z,59.08
2022-12-08T16:59:53.119Z,58.67
2022-12-08T17:02:37.991Z,59.41
2022-12-08T17:05:22.877Z,58.68
2022-12-08T17:08:08.176Z,58.12
2022-12-08T17:10:53.134Z,58.30
2022-12-08T17:13:38.113Z,57.46
2022-12-08T17:16:23.085Z,59.26
2022-12-08T17:19:08.550Z,59.33
2022-12-08T17:21:53.744Z,58.72
2022-12-08T17:24:38.764Z,59.72
2022-12-08T17:27:23.626Z,60.24
2022-12-08T17:30:08.908Z,59.35
2022-12-08T17:32:54.091Z,60.45
2022-12-08T17:35:39.016Z,58.69
2022-12-08T17:38:24.012Z,60.21
2022-12-08T17:41:08.690Z,60.49
2022-12-08T17:43:53.504Z,59.66
2022-12-08T17:46:42.088Z,60.70
2022-12-08T17:49:28.193Z,59.71
2022-12-08T17:52:13.117Z,60.45
2022-12-08T17:54:58.224Z,60.18
2022-12-08T17:57:43.608Z,59.09
2022-12-08T18:00:28.667Z,58.02
2022-12-08T18:03:13.737Z,57.13
2022-12-08T18:05:58.754Z,56.36
2022-12-08T18:08:43.672Z,57.72
2022-12-08T18:11:28.551Z,58.46
2022-12-08T18:14:13.401Z,57.72
2022-12-08T18:16:58.625Z,57.56
2022-12-08T18:19:43.948Z,59.74
2022-12-08T18:22:29.010Z,59.57
2022-12-08T18:25:13.851Z,58.55
2022-12-08T18:27:58.842Z,59.41
2022-12-08T18:30:43.910Z,58.53
2022-12-08T18:33:28.883Z,58.44
2022-12-08T18:36:14.084Z,57.69
2022-12-08T18:38:58.940Z,58.27
2022-12-08T18:41:43.850Z,59.04
2022-12-08T18:44:28.785Z,58.93
2022-12-08T18:47:13.704Z,59.34
2022-12-08T18:49:58.664Z,60.11
2022-12-08T18:52:43.741Z,57.94
2022-12-08T18:55:28.758Z,58.72
2022-12-08T18:58:13.533Z,59.19
2022-12-08T19:00:58.597Z,59.07
2022-12-08T19:04:04.705Z,59.13
2022-12-08T19:06:48.392Z,59.17
2022-12-08T19:09:33.407Z,59.35
2022-12-08T19:12:18.384Z,59.54
2022-12-08T19:15:03.750Z,58.82
2022-12-08T19:17:48.816Z,58.96
2022-12-08T19:20:33.875Z,58.71
2022-12-08T19:23:18.931Z,58.89
2022-12-08T19:26:03.774Z,58.03
2022-12-08T19:28:48.769Z,57.82
2022-12-08T19:31:33.841Z,56.37
2022-12-08T19:34:19.206Z,57.45
2022-12-08T19:37:04.072Z,56.46
2022-12-08T19:39:49.038Z,56.96
2022-12-08T19:42:33.995Z,57.18
2022-12-08T19:45:18.966Z,57.38
2022-12-08T19:48:04.011Z,55.99
2022-12-08T19:50:48.921Z,56.75
2022-12-08T19:53:33.946Z,56.43
2022-12-08T19:56:18.697Z,55.89
2022-12-08T19:59:03.609Z,55.71
2022-12-08T20:01:48.615Z,55.69
2022-12-08T20:04:33.913Z,56.16
2022-12-08T20:07:18.825Z,57.35
2022-12-08T20:10:04.231Z,56.60
2022-12-08T20:12:49.921Z,56.68
2022-12-08T20:15:34.846Z,57.94
2022-12-08T20:18:19.647Z,57.49
2022-12-08T20:21:04.460Z,57.14
2022-12-08T20:23:49.457Z,56.10
2022-12-08T20:26:34.291Z,57.76
2022-12-08T20:29:19.269Z,57.32
2022-12-08T20:32:04.339Z,56.57
2022-12-08T20:34:49.686Z,56.48
2022-12-08T20:37:34.706Z,55.05
2022-12-08T20:40:19.756Z,55.46
2022-12-08T20:43:04.784Z,53.86
2022-12-08T20:45:49.645Z,56.54
2022-12-08T20:48:34.627Z,55.76
2022-12-08T20:51:19.734Z,55.78
2022-12-08T20:54:05.243Z,55.58
2022-12-08T20:56:50.745Z,55.27
2022-12-08T20:59:35.642Z,54.73
2022-12-08T21:02:21.170Z,56.22
2022-12-08T21:05:06.503Z,55.16
2022-12-08T21:07:51.867Z,55.95
2022-12-08T21:10:40.787Z,54.91
2022-12-08T21:13:29.150Z,55.19
2022-12-08T21:16:14.369Z,55.34
2022-12-08T21:18:59.219Z,55.84
2022-12-08T21:21:44.147Z,55.16
2022-12-08T21:24:33.941Z,56.56
2022-12-08T21:27:19.896Z,57.85
2022-12-08T21:30:05.255Z,57.19
2022-12-08T21:32:50.742Z,56.85
2022-12-08T21:35:36.124Z,56.44
2022-12-08T21:38:20.955Z,56.57
2022-12-08T21:41:06.025Z,56.34
2022-12-08T21:43:51.286Z,55.28
2022-12-08T21:46:36.761Z,54.88
2022-12-08T21:49:22.022Z,53.78
2022-12-08T21:52:07.571Z,53.45
2022-12-08T21:54:53.028Z,56.47
2022-12-08T21:57:38.336Z,56.05
2022-12-08T22:00:23.681Z,56.11
2022-12-08T22:03:09.090Z,57.67
2022-12-08T22:05:54.639Z,57.06
2022-12-08T22:08:39.886Z,56.13
2022-12-08T22:11:25.168Z,57.32
2022-12-08T22:14:14.362Z,57.29
2022-12-08T22:17:00.220Z,58.43
2022-12-08T22:19:45.342Z,58.28
2022-12-08T22:22:30.318Z,60.44
2022-12-08T22:25:15.338Z,61.45
2022-12-08T22:28:00.790Z,62.58
2022-12-08T22:30:45.488Z,62.08
2022-12-08T22:33:30.647Z,62.32
2022-12-08T22:36:15.634Z,61.17
2022-12-08T22:39:00.618Z,62.23
2022-12-08T22:41:45.453Z,65.07
2022-12-08T22:44:30.435Z,63.78
2022-12-08T22:47:15.523Z,63.73
2022-12-08T22:50:00.861Z,64.82
2022-12-08T22:52:46.287Z,65.05
2022-12-08T22:55:31.279Z,66.93
2022-12-08T22:58:16.631Z,67.71
2022-12-08T23:01:01.724Z,68.25
2022-12-08T23:03:47.021Z,66.47
2022-12-08T23:06:32.613Z,68.24
2022-12-08T23:09:18.013Z,67.95
2022-12-08T23:12:03.011Z,68.89
2022-12-08T23:14:47.820Z,69.98
2022-12-08T23:17:33.127Z,70.14
2022-12-08T23:20:18.392Z,69.31
2022-12-08T23:23:03.649Z,69.75
2022-12-08T23:25:48.918Z,70.18
2022-12-08T23:28:33.766Z,69.71
2022-12-08T23:31:18.883Z,70.12
2022-12-08T23:34:04.073Z,69.22
2022-12-08T23:36:49.117Z,68.67
2022-12-08T23:39:34.288Z,69.11
2022-12-08T23:42:19.022Z,67.91
2022-12-08T23:45:04.316Z,71.59
2022-12-08T23:47:49.619Z,70.37
2022-12-08T23:50:34.524Z,71.24
2022-12-08T23:53:19.371Z,69.92
2022-12-08T23:56:04.674Z,70.06
2022-12-08T23:58:50.028Z,69.97
